Time;durP1;ratioP1;P1;durP2;ratioP2;P2;SDS_P1;SDS_P2;PMS_P1;PMS_P2;Temp;Humidity;BMP_temperature;BMP_pressure;BME280_temperature;BME280_humidity;BME280_pressure;Samples;Min_cycle;Max_cycle;Signal;HPM_P1;HPM_P2
2019/12/29 00:00:11;;;;;;;11.9;10.8;;;;;;;;;;;;;
2019/12/29 00:02:36;;;;;;;11.5;10.4;;;;;;;;;;;;;
2019/12/29 00:05:01;;;;;;;10.9;9.9;;;;;;;;;;;;;
2019/12/29 00:07:27;;;;;;;11.1;10;;;;;;;;;;;;;
2019/12/29 00:09:52;;;;;;;10.7;9.7;;;;;;;;;;;;;
2019/12/29 00:12:17;;;;;;;11.3;10.3;;;;;;;;;;;;;
2019/12/29 00:14:42;;;;;;;11;10;;;;;;;;;;;;;
2019/12/29 00:17:07;;;;;;;13.7;12.3;;;;;;;;;;;;;
2019/12/29 00:19:32;;;;;;;17.5;15.8;;;;;;;;;;;;;
2019/12/29 00:21:57;;;;;;;15.8;14.3;;;;;;;;;;;;;
2019/12/29 00:24:23;;;;;;;14.7;13.3;;;;;;;;;;;;;
2019/12/29 00:26:48;;;;;;;12.6;11.4;;;;;;;;;;;;;
2019/12/29 00:29:13;;;;;;;11.9;10.8;;;;;;;;;;;;;
2019/12/29 00:31:51;;;;;;;10.9;9.9;;;;;;;;;;;;;
2019/12/29 00:34:03;;;;;;;12.1;11;;;;;;;;;;;;;
2019/12/29 00:36:28;;;;;;;11.1;10;;;;;;;;;;;;;
2019/12/29 00:38:53;;;;;;;11.2;10.1;;;;;;;;;;;;;
2019/12/29 00:41:19;;;;;;;12;10.9;;;;;;;;;;;;;
2019/12/29 00:43:44;;;;;;;11.1;10;;;;;;;;;;;;;
2019/12/29 00:46:09;;;;;;;11.8;10.7;;;;;;;;;;;;;
2019/12/29 00:48:34;;;;;;;11.9;10.8;;;;;;;;;;;;;
2019/12/29 00:50:59;;;;;;;12.5;11.2;;;;;;;;;;;;;
2019/12/29 00:53:24;;;;;;;12.1;11;;;;;;;;;;;;;
2019/12/29 00:55:49;;;;;;;12.2;11.1;;;;;;;;;;;;;
2019/12/29 00:58:14;;;;;;;11.1;10;;;;;;;;;;;;;
2019/12/29 01:00:39;;;;;;;11.9;10.8;;;;;;;;;;;;;
2019/12/29 01:03:04;;;;;;;12;11;;;;;;;;;;;;;
2019/12/29 01:05:30;;;;;;;11.7;10.6;;;;;;;;;;;;;
2019/12/29 01:07:55;;;;;;;11.7;10.6;;;;;;;;;;;;;
2019/12/29 01:10:20;;;;;;;12.1;11;;;;;;;;;;;;;
2019/12/29 01:13:04;;;;;;;12.2;11.1;;;;;;;;;;;;;
2019/12/29 01:15:10;;;;;;;12.5;11.3;;;;;;;;;;;;;
2019/12/29 01:17:35;;;;;;;12.9;11.7;;;;;;;;;;;;;
2019/12/29 01:20:00;;;;;;;12.7;11.5;;;;;;;;;;;;;
2019/12/29 01:22:26;;;;;;;12.9;11.8;;;;;;;;;;;;;
2019/12/29 01:24:51;;;;;;;12.6;11.4;;;;;;;;;;;;;
2019/12/29 01:27:16;;;;;;;12.8;11.6;;;;;;;;;;;;;
2019/12/29 01:29:41;;;;;;;12.4;11.3;;;;;;;;;;;;;
2019/12/29 01:32:06;;;;;;;12.6;11.4;;;;;;;;;;;;;
2019/12/29 01:34:31;;;;;;;12.5;11.3;;;;;;;;;;;;;
2019/12/29 01:36:56;;;;;;;12.3;11.1;;;;;;;;;;;;;
2019/12/29 01:39:21;;;;;;;11.8;10.7;;;;;;;;;;;;;
2019/12/29 01:41:47;;;;;;;11.8;10.7;;;;;;;;;;;;;
2019/12/29 01:44:12;;;;;;;11.9;10.9;;;;;;;;;;;;;
2019/12/29 01:46:37;;;;;;;11.9;10.8;;;;;;;;;;;;;
2019/12/29 01:49:02;;;;;;;11.6;10.6;;;;;;;;;;;;;
2019/12/29 01:51:27;;;;;;;12.3;11.2;;;;;;;;;;;;;
2019/12/29 01:53:52;;;;;;;12.4;11.2;;;;;;;;;;;;;
2019/12/29 01:56:17;;;;;;;12.8;11.6;;;;;;;;;;;;;
2019/12/29 01:58:44;;;;;;;12.8;11.5;;;;;;;;;;;;;
2019/12/29 02:01:15;;;;;;;12.7;11.5;;;;;;;;;;;;;
2019/12/29 02:03:33;;;;;;;12.8;11.5;;;;;;;;;;;;;
2019/12/29 02:05:58;;;;;;;12.3;11.2;;;;;;;;;;;;;
2019/12/29 02:08:23;;;;;;;12;10.9;;;;;;;;;;;;;
2019/12/29 02:10:48;;;;;;;12.5;11.4;;;;;;;;;;;;;
2019/12/29 02:13:13;;;;;;;11.7;10.6;;;;;;;;;;;;;
2019/12/29 02:15:38;;;;;;;12.5;11.3;;;;;;;;;;;;;
2019/12/29 02:18:03;;;;;;;12.4;11.3;;;;;;;;;;;;;
2019/12/29 02:20:28;;;;;;;12.7;11.5;;;;;;;;;;;;;
2019/12/29 02:22:53;;;;;;;12.5;11.4;;;;;;;;;;;;;
2019/12/29 02:25:18;;;;;;;12.4;11.3;;;;;;;;;;;;;
2019/12/29 02:27:43;;;;;;;13;11.8;;;;;;;;;;;;;
2019/12/29 02:30:08;;;;;;;13.7;12.4;;;;;;;;;;;;;
2019/12/29 02:32:34;;;;;;;12.7;11.6;;;;;;;;;;;;;
2019/12/29 02:35:05;;;;;;;13.7;12.4;;;;;;;;;;;;;
2019/12/29 02:37:25;;;;;;;13.5;12.2;;;;;;;;;;;;;
2019/12/29 02:39:49;;;;;;;13.7;12.3;;;;;;;;;;;;;
2019/12/29 02:42:14;;;;;;;13.9;12.5;;;;;;;;;;;;;
2019/12/29 02:44:39;;;;;;;14;12.7;;;;;;;;;;;;;
2019/12/29 02:47:04;;;;;;;13.8;12.5;;;;;;;;;;;;;
2019/12/29 02:49:29;;;;;;;13.9;12.5;;;;;;;;;;;;;
2019/12/29 02:51:54;;;;;;;14.4;13;;;;;;;;;;;;;
2019/12/29 02:54:19;;;;;;;14.7;13.3;;;;;;;;;;;;;
2019/12/29 02:56:44;;;;;;;14.5;13.1;;;;;;;;;;;;;
2019/12/29 02:59:09;;;;;;;13.9;12.6;;;;;;;;;;;;;
2019/12/29 03:01:34;;;;;;;13.2;12;;;;;;;;;;;;;
2019/12/29 03:03:59;;;;;;;14;12.7;;;;;;;;;;;;;
2019/12/29 03:06:24;;;;;;;13.2;11.9;;;;;;;;;;;;;
2019/12/29 03:08:50;;;;;;;14.6;13.3;;;;;;;;;;;;;
2019/12/29 03:11:15;;;;;;;14.1;12.9;;;;;;;;;;;;;
2019/12/29 03:13:40;;;;;;;14;12.7;;;;;;;;;;;;;
2019/12/29 03:16:05;;;;;;;14.6;13.3;;;;;;;;;;;;;
2019/12/29 03:18:30;;;;;;;13;11.9;;;;;;;;;;;;;
2019/12/29 03:20:55;;;;;;;14;12.8;;;;;;;;;;;;;
2019/12/29 03:23:20;;;;;;;14.2;12.9;;;;;;;;;;;;;
2019/12/29 03:25:45;;;;;;;13.4;12.2;;;;;;;;;;;;;
2019/12/29 03:28:10;;;;;;;14;12.8;;;;;;;;;;;;;
2019/12/29 03:30:36;;;;;;;14;12.7;;;;;;;;;;;;;
2019/12/29 03:33:01;;;;;;;13.9;12.7;;;;;;;;;;;;;
2019/12/29 03:35:26;;;;;;;13.6;12.4;;;;;;;;;;;;;
2019/12/29 03:37:51;;;;;;;14.4;13.1;;;;;;;;;;;;;
2019/12/29 03:40:16;;;;;;;15.1;13.7;;;;;;;;;;;;;
2019/12/29 03:42:41;;;;;;;14.7;13.3;;;;;;;;;;;;;
2019/12/29 03:45:06;;;;;;;14.9;13.5;;;;;;;;;;;;;
2019/12/29 03:47:31;;;;;;;15.7;14.3;;;;;;;;;;;;;
2019/12/29 03:49:56;;;;;;;15.5;14;;;;;;;;;;;;;
2019/12/29 03:52:22;;;;;;;14.3;13;;;;;;;;;;;;;
2019/12/29 03:54:47;;;;;;;15.3;13.9;;;;;;;;;;;;;
2019/12/29 03:57:12;;;;;;;14.5;13.2;;;;;;;;;;;;;
2019/12/29 03:59:37;;;;;;;14.5;13.2;;;;;;;;;;;;;
2019/12/29 04:02:28;;;;;;;14.2;12.9;;;;;;;-2.12;90.21973;979.829;;;;
2019/12/29 04:04:53;;;;;;;15;13.4;;;;;;;-2.17;90.44434;979.8853;;;;
2019/12/29 04:07:19;;;;;;;14.2;12.8;;;;;;;-2.12;90.09668;979.8463;;;;
2019/12/29 04:09:44;;;;;;;13.8;12.5;;;;;;;-2.1;89.93457;979.7113;;;;
2019/12/29 04:12:09;;;;;;;14.5;13;;;;;;;-2.12;89.66113;979.7651;;;;
2019/12/29 04:14:34;;;;;;;14;12.7;;;;;;;-2.17;89.69629;979.7665;;;;
2019/12/29 04:16:59;;;;;;;14.2;12.9;;;;;;;-2.26;90.31348;979.8206;;;;
2019/12/29 04:19:24;;;;;;;13.7;12.5;;;;;;;-2.08;89.9834;979.8488;;;;
2019/12/29 04:21:49;;;;;;;13.3;12.1;;;;;;;-2.01;89.18457;979.8647;;;;
2019/12/29 04:24:14;;;;;;;14.3;12.9;;;;;;;-2.23;90.06445;979.8731;;;;
2019/12/29 04:26:39;;;;;;;14.2;13;;;;;;;-2.27;90.75781;979.9177;;;;
2019/12/29 04:29:04;;;;;;;15.2;13.8;;;;;;;-2.23;91.52539;979.8817;;;;
2019/12/29 04:31:29;;;;;;;14.4;13.1;;;;;;;-2.13;90.54297;979.9138;;;;
2019/12/29 04:33:54;;;;;;;14;12.7;;;;;;;-2.16;89.77637;979.866;;;;
2019/12/29 04:36:19;;;;;;;15.2;13.8;;;;;;;-2.22;91.31543;979.8177;;;;
2019/12/29 04:38:44;;;;;;;15;13.5;;;;;;;-2.22;90.83496;979.903;;;;
2019/12/29 04:41:09;;;;;;;14.9;13.6;;;;;;;-2.34;91.24512;979.8582;;;;
2019/12/29 04:43:34;;;;;;;14.2;13;;;;;;;-2.26;90.93848;979.9244;;;;
2019/12/29 04:45:59;;;;;;;14.3;12.9;;;;;;;-2.23;90.97754;979.8721;;;;
2019/12/29 04:48:25;;;;;;;14.9;13.5;;;;;;;-2.25;91.51953;979.7785;;;;
2019/12/29 04:50:50;;;;;;;14.1;12.8;;;;;;;-2.19;90.29492;979.8091;;;;
2019/12/29 04:53:15;;;;;;;14.3;13;;;;;;;-2.23;90.11816;979.8674;;;;
2019/12/29 04:55:40;;;;;;;15.3;13.9;;;;;;;-2.42;91.09375;979.8795;;;;
2019/12/29 04:58:05;;;;;;;14.9;13.5;;;;;;;-2.34;91.33398;979.8212;;;;
2019/12/29 05:00:30;;;;;;;14.2;12.9;;;;;;;-2.24;91.27734;979.7999;;;;
2019/12/29 05:02:55;;;;;;;15;13.6;;;;;;;-2.28;91.4375;979.7599;;;;
2019/12/29 05:05:20;;;;;;;14.3;13;;;;;;;-2.33;91.49219;979.7416;;;;
2019/12/29 05:07:45;;;;;;;15;13.6;;;;;;;-2.4;91.5791;979.7194;;;;
2019/12/29 05:10:10;;;;;;;15.1;13.7;;;;;;;-2.35;91.52441;979.7548;;;;
2019/12/29 05:12:35;;;;;;;14.9;13.6;;;;;;;-2.35;92.78613;979.7389;;;;
2019/12/29 05:15:00;;;;;;;15.7;14.2;;;;;;;-2.5;92.25;979.8064;;;;
2019/12/29 05:17:28;;;;;;;15.1;13.7;;;;;;;-2.53;91.69531;979.8816;;;;
2019/12/29 05:19:50;;;;;;;14.4;13;;;;;;;-2.5;91.45703;979.8831;;;;
2019/12/29 05:22:16;;;;;;;14.8;13.4;;;;;;;-2.45;91.1543;979.9617;;;;
2019/12/29 05:24:41;;;;;;;15;13.6;;;;;;;-2.55;91.76953;980.0154;;;;
2019/12/29 05:27:06;;;;;;;15.4;14;;;;;;;-2.72;92.08887;980.0995;;;;
2019/12/29 05:29:32;;;;;;;15.1;13.7;;;;;;;-2.74;91.99609;980.1085;;;;
2019/12/29 05:31:57;;;;;;;15.5;14;;;;;;;-2.78;92.96777;980.2092;;;;
2019/12/29 05:34:22;;;;;;;14.9;13.5;;;;;;;-2.83;92.97754;980.1597;;;;
2019/12/29 05:36:47;;;;;;;15.3;13.8;;;;;;;-2.7;92.99707;980.1446;;;;
2019/12/29 05:39:12;;;;;;;15.6;14;;;;;;;-2.7;93.20898;980.1573;;;;
2019/12/29 05:41:38;;;;;;;15.4;14;;;;;;;-2.78;93.01172;980.1882;;;;
2019/12/29 05:44:03;;;;;;;16;14.6;;;;;;;-2.78;94.28418;980.1741;;;;
2019/12/29 05:46:28;;;;;;;15.3;13.9;;;;;;;-2.73;93.68262;980.2328;;;;
2019/12/29 05:48:53;;;;;;;15.6;14.1;;;;;;;-2.72;93.40527;980.1618;;;;
2019/12/29 05:51:19;;;;;;;15.3;13.9;;;;;;;-2.7;93.18652;980.193;;;;
2019/12/29 05:53:44;;;;;;;15.3;13.9;;;;;;;-2.64;93.06641;980.2098;;;;
2019/12/29 05:56:09;;;;;;;14.4;13.1;;;;;;;-2.64;93.01953;980.2525;;;;
2019/12/29 05:58:34;;;;;;;14.8;13.4;;;;;;;-2.49;92.23828;980.2665;;;;
2019/12/29 06:00:59;;;;;;;14.4;13.1;;;;;;;-2.54;92.9209;980.2424;;;;
2019/12/29 06:03:25;;;;;;;16.1;14.6;;;;;;;-2.66;93.00684;980.258;;;;
2019/12/29 06:05:50;;;;;;;16.4;14.8;;;;;;;-2.58;92.51074;980.3077;;;;
2019/12/29 06:08:15;;;;;;;15.8;14.3;;;;;;;-2.57;92.68945;980.3308;;;;
2019/12/29 06:10:40;;;;;;;16.2;14.6;;;;;;;-2.48;92.37695;980.2795;;;;
2019/12/29 06:13:05;;;;;;;15.2;13.8;;;;;;;-2.54;92.00391;980.3549;;;;
2019/12/29 06:15:31;;;;;;;15.9;14.4;;;;;;;-2.63;92.08594;980.2611;;;;
2019/12/29 06:17:56;;;;;;;17.8;16;;;;;;;-2.81;93.18457;980.2778;;;;
2019/12/29 06:20:21;;;;;;;15.9;14.4;;;;;;;-2.66;93.14063;980.2899;;;;
2019/12/29 06:22:48;;;;;;;15.6;14;;;;;;;-2.59;92.46289;980.2849;;;;
2019/12/29 06:25:29;;;;;;;15.5;14.1;;;;;;;-2.49;93.1543;980.2303;;;;
2019/12/29 06:27:52;;;;;;;15.6;14.2;;;;;;;-2.72;92.72266;980.2902;;;;
2019/12/29 06:30:17;;;;;;;16.2;14.6;;;;;;;-2.75;92.89551;980.2575;;;;
2019/12/29 06:32:42;;;;;;;16.5;15;;;;;;;-2.85;94.59082;980.241;;;;
2019/12/29 06:35:07;;;;;;;15;13.5;;;;;;;-2.72;93.68457;980.1395;;;;
2019/12/29 06:37:32;;;;;;;14.8;13.4;;;;;;;-2.62;92.8252;980.1063;;;;
2019/12/29 06:39:58;;;;;;;14.6;13.3;;;;;;;-2.79;93.0752;980.1665;;;;
2019/12/29 06:42:23;;;;;;;14.5;13.2;;;;;;;-2.82;92.7793;980.1181;;;;
2019/12/29 06:44:48;;;;;;;14.2;12.9;;;;;;;-2.66;92.23633;980.1415;;;;
2019/12/29 06:47:13;;;;;;;15.1;13.7;;;;;;;-2.74;92.47363;980.1511;;;;
2019/12/29 06:49:38;;;;;;;14.8;13.4;;;;;;;-2.84;92.87598;980.1047;;;;
2019/12/29 06:52:04;;;;;;;15.1;13.7;;;;;;;-3.02;93.22852;980.1731;;;;
2019/12/29 06:54:29;;;;;;;15.2;13.7;;;;;;;-3.1;93.76758;980.1433;;;;
2019/12/29 06:56:54;;;;;;;14.4;13.1;;;;;;;-2.82;92.87012;980.1813;;;;
2019/12/29 06:59:19;;;;;;;14.9;13.5;;;;;;;-2.82;92.74609;980.2075;;;;
2019/12/29 07:01:45;;;;;;;14.6;13.2;;;;;;;-2.88;92.87695;980.2026;;;;
2019/12/29 07:04:10;;;;;;;15.1;13.7;;;;;;;-3.02;93.13867;980.2322;;;;
2019/12/29 07:06:35;;;;;;;15.1;13.5;;;;;;;-3.04;93.84668;980.2629;;;;
2019/12/29 07:09:00;;;;;;;15.6;14.1;;;;;;;-3.07;93.57324;980.2405;;;;
2019/12/29 07:11:26;;;;;;;15.3;13.8;;;;;;;-3.04;93.18848;980.3033;;;;
2019/12/29 07:13:51;;;;;;;14.8;13.4;;;;;;;-3.08;93.43457;980.259;;;;
2019/12/29 07:16:23;;;;;;;15.2;13.8;;;;;;;-2.94;92.30957;980.2654;;;;
2019/12/29 07:19:04;;;;;;;15.4;13.8;;;;;;;-3.05;92.72949;980.3398;;;;
2019/12/29 07:21:06;;;;;;;15.7;14.2;;;;;;;-2.85;93.39746;980.351;;;;
2019/12/29 07:23:32;;;;;;;14.4;13;;;;;;;-2.65;92.06055;980.2978;;;;
2019/12/29 07:25:57;;;;;;;15.1;13.6;;;;;;;-2.74;92.77441;980.3314;;;;
2019/12/29 07:28:22;;;;;;;14.6;13.3;;;;;;;-2.84;92.37402;980.2552;;;;
2019/12/29 07:30:47;;;;;;;15;13.7;;;;;;;-2.93;91.98633;980.3116;;;;
2019/12/29 07:33:12;;;;;;;16.5;15;;;;;;;-2.95;92.62891;980.2495;;;;
2019/12/29 07:35:37;;;;;;;15.4;14;;;;;;;-3.02;92.71484;980.2704;;;;
2019/12/29 07:38:02;;;;;;;16.2;14.6;;;;;;;-2.99;92.72168;980.2175;;;;
2019/12/29 07:40:27;;;;;;;15.8;14.3;;;;;;;-2.93;92.55469;980.2277;;;;
2019/12/29 07:42:52;;;;;;;16.1;14.5;;;;;;;-3.14;93.43457;980.2704;;;;
2019/12/29 07:45:18;;;;;;;15.6;14.2;;;;;;;-2.83;92.73242;980.2405;;;;
2019/12/29 07:47:43;;;;;;;13.9;12.6;;;;;;;-2.86;92.28027;980.2321;;;;
2019/12/29 07:50:08;;;;;;;15;13.6;;;;;;;-2.88;91.65234;980.2399;;;;
2019/12/29 07:52:34;;;;;;;16.5;15;;;;;;;-3.06;94.59863;980.2224;;;;
2019/12/29 07:54:59;;;;;;;15.5;14.1;;;;;;;-3.08;93.69336;980.1705;;;;
2019/12/29 07:57:24;;;;;;;14.5;13.1;;;;;;;-2.88;93.14648;980.1633;;;;
2019/12/29 07:59:50;;;;;;;14.4;13;;;;;;;-2.6;91.93652;980.2048;;;;
2019/12/29 08:02:15;;;;;;;15.3;13.8;;;;;;;-2.7;92.2041;980.1833;;;;
2019/12/29 08:04:40;;;;;;;15.3;13.8;;;;;;;-2.83;92.53223;980.2815;;;;
2019/12/29 08:07:05;;;;;;;14.8;13.4;;;;;;;-2.83;92.73242;980.2979;;;;
2019/12/29 08:09:30;;;;;;;14.7;13.4;;;;;;;-2.77;92.22266;980.2441;;;;
2019/12/29 08:11:55;;;;;;;15.1;13.7;;;;;;;-2.74;93.1543;980.1942;;;;
2019/12/29 08:14:20;;;;;;;17.2;15.5;;;;;;;-2.71;92.73633;980.2314;;;;
2019/12/29 08:16:45;;;;;;;17;15.3;;;;;;;-2.32;91.31738;980.2231;;;;
2019/12/29 08:19:11;;;;;;;18;16.3;;;;;;;-2.41;93.19434;980.1873;;;;
2019/12/29 08:21:36;;;;;;;19.2;17.3;;;;;;;-2.4;91.42285;980.1605;;;;
2019/12/29 08:24:01;;;;;;;22.1;19.8;;;;;;;-2.36;91.35254;980.1909;;;;
2019/12/29 08:26:26;;;;;;;16.6;15;;;;;;;-2.22;91.39551;980.2227;;;;
2019/12/29 08:28:52;;;;;;;18.2;16.4;;;;;;;-2.46;91.72168;980.217;;;;
2019/12/29 08:31:17;;;;;;;16.2;14.7;;;;;;;-2.28;91.02441;980.2208;;;;
2019/12/29 08:33:42;;;;;;;17.9;16.1;;;;;;;-2.27;92.17676;980.2843;;;;
2019/12/29 08:36:08;;;;;;;16.4;14.8;;;;;;;-2.09;89.96094;980.3082;;;;
2019/12/29 08:38:33;;;;;;;16.6;15;;;;;;;-2.15;90.82813;980.3466;;;;
2019/12/29 08:40:58;;;;;;;16.6;15.1;;;;;;;-2.14;89.88184;980.4233;;;;
2019/12/29 08:43:23;;;;;;;16.6;15;;;;;;;-2.18;90.19629;980.4528;;;;
2019/12/29 08:45:48;;;;;;;17.2;15.4;;;;;;;-2.19;91.81641;980.4328;;;;
2019/12/29 08:48:13;;;;;;;17.4;15.8;;;;;;;-2.17;90.73242;980.4006;;;;
2019/12/29 08:50:38;;;;;;;16.8;15.2;;;;;;;-2.04;89.93652;980.416;;;;
2019/12/29 08:53:04;;;;;;;18.4;16.7;;;;;;;-2.23;91.3916;980.4902;;;;
2019/12/29 08:55:29;;;;;;;19;17.1;;;;;;;-2.08;92.12988;980.5285;;;;
2019/12/29 08:57:54;;;;;;;17.8;16.1;;;;;;;-2.09;91.3125;980.543;;;;
2019/12/29 09:00:19;;;;;;;17.1;15.5;;;;;;;-1.81;90.28711;980.5856;;;;
2019/12/29 09:02:44;;;;;;;17.7;16;;;;;;;-1.73;89.57715;980.5722;;;;
2019/12/29 09:05:09;;;;;;;18.4;16.5;;;;;;;-1.94;90.78516;980.681;;;;
2019/12/29 09:07:34;;;;;;;18.9;17.1;;;;;;;-1.92;91.19141;980.7266;;;;
2019/12/29 09:10:00;;;;;;;17.5;15.8;;;;;;;-1.85;90.2793;980.7031;;;;
2019/12/29 09:12:25;;;;;;;17.8;16.1;;;;;;;-1.85;89.87695;980.6866;;;;
2019/12/29 09:14:50;;;;;;;17.3;15.6;;;;;;;-1.69;89.90918;980.7157;;;;
2019/12/29 09:17:15;;;;;;;16.9;15.3;;;;;;;-1.75;89.78613;980.7341;;;;
2019/12/29 09:19:40;;;;;;;17.1;15.5;;;;;;;-1.79;90.1582;980.6517;;;;
2019/12/29 09:22:06;;;;;;;16.4;14.8;;;;;;;-1.77;90.05078;980.6465;;;;
2019/12/29 09:24:44;;;;;;;16.4;14.9;;;;;;;-1.56;89.15527;980.6367;;;;
2019/12/29 09:26:58;;;;;;;16.1;14.6;;;;;;;-1.48;88.70215;980.6353;;;;
2019/12/29 09:29:21;;;;;;;17.1;15.5;;;;;;;-1.64;89.26074;980.6149;;;;
2019/12/29 09:31:46;;;;;;;16.6;15.1;;;;;;;-1.51;89.74805;980.5923;;;;
2019/12/29 09:34:11;;;;;;;17.3;15.8;;;;;;;-1.48;89.41797;980.6342;;;;
2019/12/29 09:36:36;;;;;;;16.9;15.3;;;;;;;-1.35;88.37207;980.5865;;;;
2019/12/29 09:39:01;;;;;;;16.1;14.6;;;;;;;-1.32;87.78418;980.5527;;;;
2019/12/29 09:41:26;;;;;;;17.1;15.5;;;;;;;-1.44;89.53711;980.5298;;;;
2019/12/29 09:43:51;;;;;;;16.8;15.2;;;;;;;-1.54;89.37109;980.4783;;;;
2019/12/29 09:46:16;;;;;;;16.9;15.4;;;;;;;-1.42;90.13477;980.5103;;;;
2019/12/29 09:48:41;;;;;;;16.1;14.5;;;;;;;-1.26;88.50098;980.5353;;;;
2019/12/29 09:51:06;;;;;;;15.9;14.4;;;;;;;-1.31;87.84277;980.49;;;;
2019/12/29 09:53:31;;;;;;;15.1;13.7;;;;;;;-1.21;87.93066;980.5442;;;;
2019/12/29 09:55:57;;;;;;;16.3;14.8;;;;;;;-1.19;87.70996;980.5383;;;;
2019/12/29 09:58:22;;;;;;;15.8;14.3;;;;;;;-1.45;87.64453;980.5894;;;;
2019/12/29 10:00:47;;;;;;;15.1;13.6;;;;;;;-1.11;87.29004;980.5535;;;;
2019/12/29 10:03:12;;;;;;;15.1;13.6;;;;;;;-1.11;87.10156;980.5628;;;;
2019/12/29 10:05:37;;;;;;;14.5;13.1;;;;;;;-1.09;86.92578;980.5502;;;;
2019/12/29 10:08:02;;;;;;;14.5;13.2;;;;;;;-1.09;86.18555;980.5647;;;;
2019/12/29 10:10:27;;;;;;;14.3;13;;;;;;;-0.8;85.80859;980.5556;;;;
2019/12/29 10:12:52;;;;;;;14.6;13.2;;;;;;;-0.93;85.91797;980.4813;;;;
2019/12/29 10:15:17;;;;;;;14.3;12.9;;;;;;;-0.89;86.10254;980.4338;;;;
2019/12/29 10:17:42;;;;;;;15.5;14;;;;;;;-0.88;86.50977;980.3865;;;;
2019/12/29 10:20:07;;;;;;;15.3;13.9;;;;;;;-0.83;87.68555;980.358;;;;
2019/12/29 10:22:33;;;;;;;13.2;12;;;;;;;-0.65;85.13379;980.3778;;;;
2019/12/29 10:24:58;;;;;;;13.5;12.2;;;;;;;-0.68;84.80273;980.3209;;;;
2019/12/29 10:27:23;;;;;;;13.4;12.2;;;;;;;-0.6;85.36719;980.2864;;;;
2019/12/29 10:29:48;;;;;;;13;11.8;;;;;;;-0.5;84.63672;980.2252;;;;
2019/12/29 10:32:13;;;;;;;14;12.7;;;;;;;-0.66;85.35352;980.1765;;;;
2019/12/29 10:34:38;;;;;;;14.1;12.6;;;;;;;-0.83;85.88184;980.1887;;;;
2019/12/29 10:37:04;;;;;;;13.7;12.4;;;;;;;-0.83;85.44434;980.097;;;;
2019/12/29 10:39:29;;;;;;;13.7;12.4;;;;;;;-0.57;86.58496;980.0753;;;;
2019/12/29 10:41:54;;;;;;;14.2;12.8;;;;;;;-0.56;85.30664;979.9788;;;;
2019/12/29 10:44:20;;;;;;;13.5;12.2;;;;;;;-0.45;84.5;979.9716;;;;
2019/12/29 10:46:45;;;;;;;13.2;12;;;;;;;-0.52;85.65234;979.9548;;;;
2019/12/29 10:49:10;;;;;;;11.9;10.8;;;;;;;-0.35;83.1416;979.8975;;;;
2019/12/29 10:51:35;;;;;;;12;10.9;;;;;;;-0.46;82.92871;979.8734;;;;
2019/12/29 10:54:00;;;;;;;12.4;11.2;;;;;;;-0.22;82.97461;979.7967;;;;
2019/12/29 10:56:25;;;;;;;12;10.8;;;;;;;-0.28;82.91895;979.7697;;;;
2019/12/29 10:58:51;;;;;;;11.1;10.1;;;;;;;-0.29;81.7373;979.7197;;;;
2019/12/29 11:01:16;;;;;;;11.3;10.3;;;;;;;-0.4;82.81543;979.6503;;;;
2019/12/29 11:03:41;;;;;;;11.9;10.8;;;;;;;-0.35;82.77148;979.662;;;;
2019/12/29 11:06:06;;;;;;;11.7;10.6;;;;;;;-0.03;82.39355;979.5737;;;;
2019/12/29 11:08:31;;;;;;;12;10.9;;;;;;;-0.1;82.33789;979.6222;;;;
2019/12/29 11:10:56;;;;;;;11.7;10.6;;;;;;;-0.15;81.99121;979.5883;;;;
2019/12/29 11:13:21;;;;;;;12.4;11.2;;;;;;;-0.39;82.47168;979.5276;;;;
2019/12/29 11:15:47;;;;;;;12.7;11.5;;;;;;;-0.31;83.50781;979.4122;;;;
2019/12/29 11:18:12;;;;;;;12.3;11.1;;;;;;;-0.27;82.90918;979.3521;;;;
2019/12/29 11:20:37;;;;;;;12.5;11.4;;;;;;;-0.12;82.46777;979.3356;;;;
2019/12/29 11:23:02;;;;;;;12.1;10.9;;;;;;;-0.17;82.68164;979.3395;;;;
2019/12/29 11:25:27;;;;;;;12.6;11.4;;;;;;;-0.02;82.65527;979.3093;;;;
2019/12/29 11:27:52;;;;;;;12.7;11.4;;;;;;;0.02;82.5166;979.2789;;;;
2019/12/29 11:30:17;;;;;;;12.7;11.5;;;;;;;0.04;82.10449;979.2744;;;;
2019/12/29 11:32:42;;;;;;;12.7;11.5;;;;;;;0.05;82.01855;979.3195;;;;
2019/12/29 11:35:07;;;;;;;13;11.7;;;;;;;0.15;81.86914;979.2922;;;;
2019/12/29 11:37:33;;;;;;;13.1;11.9;;;;;;;0.22;82.99316;979.2731;;;;
2019/12/29 11:39:58;;;;;;;13;11.8;;;;;;;0.29;82.11914;979.2319;;;;
2019/12/29 11:42:23;;;;;;;12.9;11.6;;;;;;;0.19;81.57227;979.2125;;;;
2019/12/29 11:44:48;;;;;;;12.6;11.5;;;;;;;0.37;81.6084;979.2109;;;;
2019/12/29 11:47:13;;;;;;;13;11.7;;;;;;;0.31;80.93359;979.262;;;;
2019/12/29 11:49:39;;;;;;;12.9;11.7;;;;;;;0.24;80.78516;979.2086;;;;
2019/12/29 11:52:04;;;;;;;12.2;11;;;;;;;0.36;80.88574;979.2949;;;;
2019/12/29 11:54:29;;;;;;;12.7;11.5;;;;;;;0.41;81.77441;979.2802;;;;
2019/12/29 11:56:54;;;;;;;13;11.8;;;;;;;0.41;80.78223;979.2626;;;;
2019/12/29 11:59:20;;;;;;;12.3;11.2;;;;;;;0.43;80.60742;979.1742;;;;
2019/12/29 12:01:46;;;;;;;12.9;11.6;;;;;;;0.38;81.14844;979.0611;;;;
2019/12/29 12:04:10;;;;;;;13.1;11.9;;;;;;;0.49;80.48438;979.0508;;;;
2019/12/29 12:06:35;;;;;;;12.8;11.6;;;;;;;0.53;81.4248;979.017;;;;
2019/12/29 12:09:01;;;;;;;12.6;11.4;;;;;;;0.56;80.72363;978.9977;;;;
2019/12/29 12:11:26;;;;;;;12.6;11.3;;;;;;;0.59;80.05371;979.0219;;;;
2019/12/29 12:13:51;;;;;;;13.1;11.9;;;;;;;0.52;80.80664;978.9428;;;;
2019/12/29 12:16:16;;;;;;;13.1;11.8;;;;;;;0.58;80.40039;978.9442;;;;
2019/12/29 12:18:41;;;;;;;12.5;11.3;;;;;;;0.6;80.16797;978.8554;;;;
2019/12/29 12:21:06;;;;;;;12.5;11.3;;;;;;;0.62;79.95898;978.8144;;;;
2019/12/29 12:23:31;;;;;;;12.6;11.4;;;;;;;0.7;80.08691;978.7709;;;;
2019/12/29 12:25:57;;;;;;;12.9;11.7;;;;;;;0.73;80.01367;978.7283;;;;
2019/12/29 12:28:22;;;;;;;12.6;11.4;;;;;;;0.72;79.29199;978.7302;;;;
2019/12/29 12:30:47;;;;;;;12.6;11.4;;;;;;;0.81;80.09668;978.7458;;;;
2019/12/29 12:33:12;;;;;;;12.2;11;;;;;;;0.93;79.76953;978.7908;;;;
2019/12/29 12:35:38;;;;;;;12.9;11.7;;;;;;;0.8;79.43066;978.7541;;;;
2019/12/29 12:38:03;;;;;;;11.9;10.8;;;;;;;0.83;80.00977;978.8125;;;;
2019/12/29 12:40:28;;;;;;;12.4;11.1;;;;;;;0.91;79.54102;978.7715;;;;
2019/12/29 12:42:54;;;;;;;12.3;11.1;;;;;;;0.83;79.30078;978.7692;;;;
2019/12/29 12:45:19;;;;;;;12.8;11.6;;;;;;;0.79;79.80957;978.8212;;;;
2019/12/29 12:47:44;;;;;;;13.1;11.8;;;;;;;0.83;79.67188;978.8404;;;;
2019/12/29 12:50:09;;;;;;;13.1;11.8;;;;;;;0.9;79.70801;978.7708;;;;
2019/12/29 12:52:35;;;;;;;13.4;12.2;;;;;;;0.96;79.47266;978.7799;;;;
2019/12/29 12:55:00;;;;;;;12.8;11.6;;;;;;;1;79.46777;978.757;;;;
2019/12/29 12:57:25;;;;;;;13.1;11.8;;;;;;;1.01;79.30273;978.7258;;;;
2019/12/29 12:59:50;;;;;;;13.3;12.1;;;;;;;0.97;80.125;978.6728;;;;
2019/12/29 13:02:16;;;;;;;12.8;11.6;;;;;;;1.08;79.39258;978.7414;;;;
2019/12/29 13:04:41;;;;;;;12.9;11.7;;;;;;;1.11;79.73535;978.7553;;;;
2019/12/29 13:07:06;;;;;;;13.1;11.6;;;;;;;1.09;79.51855;978.6945;;;;
2019/12/29 13:09:32;;;;;;;12.8;11.6;;;;;;;1.27;79.28223;978.6628;;;;
2019/12/29 13:11:57;;;;;;;12.5;11.3;;;;;;;1.27;78.4707;978.5798;;;;
2019/12/29 13:14:22;;;;;;;12.6;11.4;;;;;;;1.29;78.89063;978.5193;;;;
2019/12/29 13:16:47;;;;;;;12.3;11.1;;;;;;;1.13;78.60254;978.6139;;;;
2019/12/29 13:19:12;;;;;;;12.4;11.2;;;;;;;1.23;79.06152;978.546;;;;
2019/12/29 13:21:37;;;;;;;11.8;10.7;;;;;;;1.27;78.94434;978.5337;;;;
2019/12/29 13:24:02;;;;;;;12.2;11.1;;;;;;;1.21;78.8877;978.5056;;;;
2019/12/29 13:26:27;;;;;;;12.2;11.1;;;;;;;1.24;79.1416;978.4984;;;;
2019/12/29 13:28:52;;;;;;;12.7;11.5;;;;;;;1.32;78.875;978.5067;;;;
2019/12/29 13:31:18;;;;;;;12.3;11.1;;;;;;;1.17;78.79102;978.4914;;;;
2019/12/29 13:33:43;;;;;;;12.2;11.1;;;;;;;1.17;78.91406;978.6214;;;;
2019/12/29 13:36:08;;;;;;;12.2;10.9;;;;;;;1.26;78.60449;978.5744;;;;
2019/12/29 13:38:33;;;;;;;12.1;10.9;;;;;;;1.23;78.65625;978.5817;;;;
2019/12/29 13:40:58;;;;;;;13.1;11.7;;;;;;;1.27;78.70605;978.5789;;;;
2019/12/29 13:43:23;;;;;;;12.9;11.6;;;;;;;1.13;78.51367;978.6566;;;;
2019/12/29 13:45:49;;;;;;;13.3;12;;;;;;;1.21;78.45898;978.647;;;;
2019/12/29 13:48:14;;;;;;;13;11.8;;;;;;;1.28;79.72266;978.7291;;;;
2019/12/29 13:50:40;;;;;;;14.2;12.9;;;;;;;1.28;78.16992;978.7181;;;;
2019/12/29 13:53:05;;;;;;;14.1;12.7;;;;;;;1.16;78.10254;978.6856;;;;
2019/12/29 13:55:31;;;;;;;14.1;12.7;;;;;;;1.16;78.81152;978.6653;;;;
2019/12/29 13:57:56;;;;;;;14.5;12.6;;;;;;;1.1;79.07031;978.6883;;;;
2019/12/29 14:00:21;;;;;;;13.6;12.3;;;;;;;1.12;79.48047;978.7056;;;;
2019/12/29 14:02:46;;;;;;;13.6;12.4;;;;;;;1.19;79.20898;978.8137;;;;
2019/12/29 14:05:11;;;;;;;12.3;11.1;;;;;;;1.24;78.90527;978.8565;;;;
2019/12/29 14:07:37;;;;;;;12.8;11.6;;;;;;;1.21;78.61914;978.9133;;;;
2019/12/29 14:10:02;;;;;;;12.8;11.6;;;;;;;1.19;79.05078;979.0305;;;;
2019/12/29 14:12:27;;;;;;;13.6;12.3;;;;;;;1.12;78.57813;979.035;;;;
2019/12/29 14:14:53;;;;;;;13.9;12.6;;;;;;;1.09;78.9541;979.0452;;;;
2019/12/29 14:17:18;;;;;;;13.3;12;;;;;;;1.08;78.92969;979.0744;;;;
2019/12/29 14:19:43;;;;;;;13;11.8;;;;;;;1.12;78.81641;978.992;;;;
2019/12/29 14:22:08;;;;;;;13.8;12.6;;;;;;;1.09;78.83301;979.0611;;;;
2019/12/29 14:24:33;;;;;;;14.3;13;;;;;;;1.06;78.70117;979.0436;;;;
2019/12/29 14:26:58;;;;;;;14.1;12.8;;;;;;;1.07;80.42676;979.0669;;;;
2019/12/29 14:29:24;;;;;;;13.9;12.6;;;;;;;1.13;79.70508;979.0887;;;;
2019/12/29 14:31:49;;;;;;;14.9;13.4;;;;;;;1.08;79.69531;979.1465;;;;
2019/12/29 14:34:14;;;;;;;14.3;13;;;;;;;1.08;80.5957;979.1372;;;;
2019/12/29 14:36:40;;;;;;;15;13.6;;;;;;;1.13;79.50293;979.1919;;;;
2019/12/29 14:39:05;;;;;;;15.2;13.7;;;;;;;1.08;80.02148;979.2043;;;;
2019/12/29 14:41:30;;;;;;;14.5;13.2;;;;;;;1.12;79.75;979.2361;;;;
2019/12/29 14:43:55;;;;;;;16.2;14.6;;;;;;;1.03;79.74316;979.2448;;;;
2019/12/29 14:46:20;;;;;;;15.9;14.4;;;;;;;1.02;79.74121;979.3211;;;;
2019/12/29 14:48:45;;;;;;;15.3;13.9;;;;;;;1.07;79.30078;979.255;;;;
2019/12/29 14:51:11;;;;;;;15.3;13.9;;;;;;;1.01;78.98535;979.267;;;;
2019/12/29 14:53:36;;;;;;;15.7;14.2;;;;;;;1.05;78.54395;979.3128;;;;
2019/12/29 14:56:01;;;;;;;16.1;14.6;;;;;;;1.05;79.51172;979.2711;;;;
2019/12/29 14:58:26;;;;;;;16.8;15.1;;;;;;;1.08;79.39258;979.2658;;;;
2019/12/29 15:00:51;;;;;;;16.6;15;;;;;;;0.96;79.61914;979.2914;;;;
2019/12/29 15:03:17;;;;;;;16.3;14.8;;;;;;;0.92;80.09375;979.2442;;;;